createdAt,value
2022-10-26T07:00:09.186Z,8.10
2022-10-26T07:03:18.995Z,8.03
2022-10-26T07:06:28.780Z,9.83
2022-10-26T07:09:38.709Z,6.17
2022-10-26T07:12:49.577Z,5.33
2022-10-26T07:16:00.602Z,5.33
2022-10-26T07:19:10.235Z,3.30
2022-10-26T07:22:19.973Z,3.27
2022-10-26T07:25:30.074Z,2.87
2022-10-26T07:28:39.727Z,3.00
2022-10-26T07:31:51.129Z,3.03
2022-10-26T07:35:00.934Z,2.30
2022-10-26T07:38:10.721Z,2.60
2022-10-26T07:41:20.612Z,3.40
2022-10-26T07:44:30.234Z,5.30
2022-10-26T07:47:44.097Z,3.83
2022-10-26T07:50:53.898Z,2.57
2022-10-26T07:54:03.782Z,2.50
2022-10-26T07:57:13.543Z,2.63
2022-10-26T08:00:23.439Z,2.20
2022-10-26T08:03:34.652Z,2.10
2022-10-26T08:06:44.321Z,2.87
2022-10-26T08:09:54.178Z,2.77
2022-10-26T08:13:04.005Z,2.50
2022-10-26T08:16:14.348Z,2.57
2022-10-26T08:19:25.483Z,2.10
2022-10-26T08:22:35.231Z,2.50
2022-10-26T08:25:44.998Z,2.60
2022-10-26T08:28:54.924Z,2.77
2022-10-26T08:32:04.887Z,2.80
2022-10-26T08:35:16.247Z,2.97
2022-10-26T08:38:34.237Z,2.50
2022-10-26T08:41:46.407Z,2.60
2022-10-26T08:45:03.342Z,2.80
2022-10-26T08:55:34.658Z,2.60
2022-10-26T08:58:53.257Z,2.57
2022-10-26T09:02:03.116Z,2.13
2022-10-26T09:05:17.137Z,2.90
2022-10-26T09:08:36.762Z,2.57
2022-10-26T09:11:58.745Z,2.60
2022-10-26T09:15:18.495Z,2.13
2022-10-26T09:26:55.941Z,2.40
2022-10-26T09:30:15.469Z,3.03
2022-10-26T09:37:59.387Z,2.23
2022-10-26T09:41:19.164Z,2.43
2022-10-26T09:44:35.799Z,2.30
2022-10-26T09:47:52.768Z,1.93
2022-10-26T09:51:04.800Z,2.30
2022-10-26T09:54:17.683Z,2.20
2022-10-26T09:57:27.509Z,2.60
2022-10-26T10:00:39.739Z,2.30
2022-10-26T10:03:49.262Z,2.57
2022-10-26T10:07:13.944Z,2.50
2022-10-26T10:10:24.156Z,2.50
2022-10-26T10:13:36.314Z,2.50
2022-10-26T10:16:55.878Z,3.03
2022-10-26T10:20:12.700Z,2.70
2022-10-26T10:23:28.541Z,2.63
2022-10-26T10:26:57.626Z,2.60
2022-10-26T10:30:22.829Z,2.73
2022-10-26T10:33:38.453Z,3.27
2022-10-26T10:36:48.003Z,3.37
2022-10-26T10:39:59.367Z,2.30
2022-10-26T10:43:14.360Z,2.40
2022-10-26T10:46:27.769Z,2.47
2022-10-26T10:49:39.440Z,2.60
2022-10-26T10:52:49.477Z,2.50
2022-10-26T10:56:15.527Z,2.43
2022-10-26T10:59:42.562Z,2.03
2022-10-26T11:03:05.967Z,2.37
2022-10-26T11:06:20.706Z,2.43
2022-10-26T11:09:33.667Z,2.57
2022-10-26T11:12:48.897Z,1.90
2022-10-26T11:16:03.876Z,2.70
2022-10-26T11:19:20.669Z,2.50
2022-10-26T11:22:36.888Z,2.40
2022-10-26T11:25:52.194Z,2.13
2022-10-26T11:29:07.363Z,1.90
2022-10-26T11:32:22.093Z,2.30
2022-10-26T11:35:36.639Z,2.10
2022-10-26T11:38:57.261Z,3.07
2022-10-26T11:42:14.319Z,2.50
2022-10-26T11:45:26.871Z,2.30
2022-10-26T11:48:42.295Z,2.77
2022-10-26T11:51:57.106Z,2.30
2022-10-26T11:55:11.747Z,2.10
2022-10-26T11:58:25.535Z,2.10
2022-10-26T12:01:35.746Z,2.20
2022-10-26T12:04:50.764Z,1.60
2022-10-26T12:08:05.479Z,2.07
2022-10-26T12:11:35.315Z,2.40
2022-10-26T12:14:52.803Z,2.03
2022-10-26T12:18:10.169Z,1.87
2022-10-26T12:21:19.974Z,2.97
2022-10-26T12:24:35.071Z,2.30
2022-10-26T12:27:54.978Z,4.73
2022-10-26T12:31:31.369Z,2.00
2022-10-26T12:35:01.318Z,2.50
2022-10-26T12:38:49.611Z,2.77
2022-10-26T12:42:27.663Z,1.80
2022-10-26T12:45:38.472Z,1.83
2022-10-26T12:48:49.295Z,2.23
2022-10-26T12:51:59.079Z,2.50
2022-10-26T12:55:31.630Z,4.90
2022-10-26T12:59:04.460Z,1.90
2022-10-26T13:02:41.077Z,3.00
2022-10-26T13:06:12.872Z,2.93
2022-10-26T13:09:25.222Z,2.37
2022-10-26T13:12:48.290Z,2.60
2022-10-26T13:16:00.239Z,5.33
2022-10-26T13:19:26.642Z,2.43
2022-10-26T13:22:46.896Z,2.00
2022-10-26T13:26:05.603Z,1.90
2022-10-26T13:29:16.723Z,1.80
2022-10-26T13:32:26.230Z,1.80
2022-10-26T13:35:44.665Z,1.90
2022-10-26T13:38:55.241Z,1.83
2022-10-26T13:42:09.960Z,3.10
2022-10-26T13:45:23.642Z,3.07
2022-10-26T13:48:38.871Z,1.70
2022-10-26T13:51:52.831Z,2.47
2022-10-26T13:55:09.020Z,1.60
2022-10-26T13:58:23.902Z,1.90
2022-10-26T14:01:34.091Z,1.70
2022-10-26T14:04:47.726Z,2.87
2022-10-26T14:08:00.037Z,2.43
2022-10-26T14:11:13.669Z,4.23
2022-10-26T14:14:26.975Z,1.83
2022-10-26T14:17:37.033Z,1.97
2022-10-26T14:20:50.886Z,2.33
2022-10-26T14:24:07.505Z,1.97
2022-10-26T14:27:18.648Z,1.60
2022-10-26T14:30:30.855Z,1.93
2022-10-26T14:33:40.526Z,2.53
2022-10-26T14:36:53.920Z,2.10
2022-10-26T14:40:07.994Z,2.70
2022-10-26T14:43:21.637Z,4.17
2022-10-26T14:46:36.231Z,3.87
2022-10-26T14:49:47.325Z,2.90
2022-10-26T14:53:00.780Z,2.53
2022-10-26T14:56:24.007Z,2.70
2022-10-26T14:59:33.613Z,1.80
2022-10-26T15:02:44.753Z,2.27
2022-10-26T15:05:54.581Z,3.27
2022-10-26T15:09:06.882Z,4.10
2022-10-26T15:12:23.468Z,3.10
2022-10-26T15:15:35.251Z,2.70
2022-10-26T15:18:48.033Z,2.53
2022-10-26T15:21:58.213Z,2.40
2022-10-26T15:25:08.725Z,3.13
2022-10-26T15:28:26.080Z,3.60
2022-10-26T15:31:35.816Z,3.90
2022-10-26T15:34:49.728Z,3.90
2022-10-26T15:38:00.917Z,3.97
2022-10-26T15:41:17.526Z,3.77
2022-10-26T15:44:30.982Z,4.40
2022-10-26T15:47:41.506Z,3.30
2022-10-26T15:50:56.805Z,4.70
2022-10-26T15:54:06.806Z,5.60
2022-10-26T15:57:19.260Z,4.50
2022-10-26T16:00:32.159Z,3.27
2022-10-26T16:03:41.687Z,2.73
2022-10-26T16:06:51.189Z,2.43
2022-10-26T16:10:00.853Z,2.80
2022-10-26T16:13:13.548Z,2.73
2022-10-26T16:16:24.346Z,2.87
2022-10-26T16:19:34.570Z,6.23
2022-10-26T16:22:48.072Z,6.20
2022-10-26T16:25:57.696Z,4.20
2022-10-26T16:29:07.324Z,4.43
2022-10-26T16:32:18.067Z,4.57
2022-10-26T16:35:27.584Z,4.70
2022-10-26T16:38:37.351Z,4.53
2022-10-26T16:41:49.806Z,5.03
2022-10-26T16:45:02.612Z,26.00
2022-10-26T16:48:15.958Z,13.00
2022-10-26T16:51:27.540Z,10.73
2022-10-26T16:54:37.087Z,11.90
2022-10-26T16:57:46.646Z,8.80
2022-10-26T17:00:56.232Z,7.00
2022-10-26T17:04:07.114Z,6.03
2022-10-26T17:07:16.875Z,6.53
2022-10-26T17:10:27.822Z,6.23
2022-10-26T17:13:38.021Z,45.13
2022-10-26T17:16:47.519Z,18.73
2022-10-26T17:19:59.358Z,20.30
2022-10-26T17:23:09.218Z,14.13
2022-10-26T17:26:18.707Z,14.90
2022-10-26T17:29:29.071Z,9.03
2022-10-26T17:32:38.626Z,11.70
2022-10-26T17:35:53.814Z,11.67
2022-10-26T17:39:03.411Z,9.77
2022-10-26T17:42:12.948Z,8.67
2022-10-26T17:45:22.566Z,8.03
2022-10-26T17:48:32.700Z,7.23
2022-10-26T17:51:43.547Z,4.90
2022-10-26T17:54:53.081Z,5.40
2022-10-26T17:58:02.630Z,4.83
2022-10-26T18:01:14.737Z,7.40
2022-10-26T18:04:24.380Z,6.83
2022-10-26T18:07:35.363Z,6.87
2022-10-26T18:10:47.812Z,5.00
2022-10-26T18:13:58.328Z,5.83
2022-10-26T18:17:07.826Z,8.47
2022-10-26T18:20:20.444Z,17.93
2022-10-26T18:23:31.266Z,15.63
2022-10-26T18:26:40.768Z,12.93
2022-10-26T18:29:50.282Z,9.93
2022-10-26T18:32:59.810Z,8.13
2022-10-26T18:36:11.397Z,6.10
2022-10-26T18:39:22.357Z,5.10
2022-10-26T18:42:31.820Z,5.20
2022-10-26T18:45:41.384Z,8.77
2022-10-26T18:48:51.649Z,6.93
2022-10-26T18:52:01.139Z,7.10
2022-10-26T18:55:12.012Z,5.53
2022-10-26T18:58:21.462Z,4.87
2022-10-26T19:01:33.031Z,4.23
2022-10-26T19:04:42.639Z,4.37
2022-10-26T19:07:52.246Z,3.90
2022-10-26T19:11:03.697Z,4.77
2022-10-26T19:14:13.703Z,4.30
2022-10-26T19:17:23.246Z,3.50
2022-10-26T19:20:32.806Z,3.67
2022-10-26T19:23:43.922Z,3.57
2022-10-26T19:26:54.835Z,3.90
2022-10-26T19:30:08.348Z,3.93
2022-10-26T19:33:17.871Z,4.30
2022-10-26T19:36:28.089Z,3.60
2022-10-26T19:39:37.566Z,3.00
2022-10-26T19:42:48.442Z,3.50
2022-10-26T19:45:58.446Z,3.03
2022-10-26T19:49:08.368Z,3.03
